Time;durP1;ratioP1;P1;durP2;ratioP2;P2;SDS_P1;SDS_P2;PMS_P1;PMS_P2;Temp;Humidity;BMP_temperature;BMP_pressure;BME280_temperature;BME280_humidity;BME280_pressure;Samples;Min_cycle;Max_cycle;Signal;HPM_P1;HPM_P2
2022/08/25 00:02:13;;;;;;;8.93;4.30;;;23.40;99.90;;;;;;5105351;27;20043;-74
2022/08/25 00:04:40;;;;;;;5.70;3.92;;;23.40;99.90;;;;;;5123722;27;20099;-73
2022/08/25 00:07:06;;;;;;;6.47;4.22;;;23.30;99.90;;;;;;5120945;27;20042;-73
2022/08/25 00:09:33;;;;;;;6.77;4.10;;;23.30;99.90;;;;;;5125827;27;20039;-73
2022/08/25 00:11:59;;;;;;;7.38;4.15;;;23.30;99.90;;;;;;5104617;27;20320;-73
2022/08/25 00:14:28;;;;;;;4.63;3.78;;;23.20;99.90;;;;;;5128101;27;20047;-73
2022/08/25 00:16:54;;;;;;;5.00;3.40;;;23.20;99.90;;;;;;5124433;27;20501;-73
2022/08/25 00:19:24;;;;;;;6.15;3.83;;;23.10;99.90;;;;;;5121809;27;20055;-73
2022/08/25 00:21:50;;;;;;;5.68;3.70;;;23.10;99.90;;;;;;5099725;27;20072;-73
2022/08/25 00:24:18;;;;;;;7.90;4.13;;;23.10;99.90;;;;;;5119768;27;20165;-72
2022/08/25 00:26:46;;;;;;;6.60;3.80;;;23.00;99.90;;;;;;5126389;27;20101;-73
2022/08/25 00:29:13;;;;;;;7.20;3.70;;;23.00;99.90;;;;;;5119324;27;20046;-73
2022/08/25 00:31:39;;;;;;;7.03;3.95;;;23.00;99.90;;;;;;5128224;27;20076;-73
2022/08/25 00:34:12;;;;;;;7.10;3.70;;;23.00;99.90;;;;;;5107556;27;20039;-73
2022/08/25 00:36:38;;;;;;;7.68;3.88;;;23.00;99.80;;;;;;5121438;27;20122;-73
2022/08/25 00:39:06;;;;;;;8.73;3.97;;;23.00;99.80;;;;;;5110089;27;20039;-73
2022/08/25 00:41:34;;;;;;;6.80;3.88;;;23.00;99.70;;;;;;5103858;27;20061;-73
2022/08/25 00:44:03;;;;;;;8.82;3.65;;;22.90;99.70;;;;;;5122533;27;20043;-73
2022/08/25 00:46:33;;;;;;;5.95;3.63;;;22.90;99.70;;;;;;5104063;27;20039;-73
2022/08/25 00:49:05;;;;;;;9.23;4.13;;;22.90;99.70;;;;;;5117647;27;20473;-73
2022/08/25 00:51:41;;;;;;;9.43;4.00;;;22.80;99.80;;;;;;5127568;27;20119;-74
2022/08/25 00:54:11;;;;;;;9.25;3.95;;;22.80;99.80;;;;;;5102944;27;20134;-74
2022/08/25 00:56:37;;;;;;;7.18;3.92;;;22.80;99.90;;;;;;5109411;27;20397;-74
2022/08/25 00:59:04;;;;;;;6.30;3.80;;;22.70;99.90;;;;;;5127926;27;20031;-74
2022/08/25 01:01:30;;;;;;;6.18;4.05;;;22.70;99.80;;;;;;5109363;27;20688;-74
2022/08/25 01:03:56;;;;;;;7.72;4.22;;;22.70;99.90;;;;;;5124586;27;20076;-73
2022/08/25 01:06:23;;;;;;;8.13;4.10;;;22.70;99.90;;;;;;5123785;27;20086;-74
2022/08/25 01:08:50;;;;;;;9.43;4.20;;;22.70;99.90;;;;;;5125421;27;20039;-74
2022/08/25 01:11:15;;;;;;;9.23;3.83;;;22.60;99.90;;;;;;5098881;27;20397;-73
2022/08/25 01:13:49;;;;;;;7.05;4.22;;;22.60;99.90;;;;;;5128066;27;20031;-73
2022/08/25 01:16:16;;;;;;;7.78;4.88;;;22.60;99.90;;;;;;5122235;27;20520;-73
2022/08/25 01:19:04;;;;;;;7.57;4.00;;;22.60;99.80;;;;;;5123000;27;20034;-74
2022/08/25 01:21:36;;;;;;;7.13;4.20;;;22.60;99.70;;;;;;5098411;27;20054;-73
2022/08/25 01:24:02;;;;;;;7.05;4.00;;;22.60;99.70;;;;;;5125283;27;20501;-74
2022/08/25 01:26:33;;;;;;;7.18;3.92;;;22.60;99.60;;;;;;5127895;27;20042;-74
2022/08/25 01:29:24;;;;;;;7.40;3.97;;;22.50;99.50;;;;;;5100054;27;20059;-73
2022/08/25 01:31:56;;;;;;;5.65;4.05;;;22.50;99.30;;;;;;5099993;28;20165;-73
2022/08/25 01:34:39;;;;;;;7.47;3.80;;;22.50;99.50;;;;;;5108793;27;20100;-73
2022/08/25 01:37:06;;;;;;;8.93;4.05;;;22.50;99.30;;;;;;5106716;27;20520;-74
2022/08/25 01:39:32;;;;;;;5.00;3.95;;;22.40;99.50;;;;;;5098730;27;20044;-74
2022/08/25 01:42:17;;;;;;;9.68;4.20;;;22.40;99.70;;;;;;5123156;27;20081;-74
2022/08/25 01:44:44;;;;;;;6.80;3.85;;;22.40;99.80;;;;;;5102396;27;20051;-73
2022/08/25 01:47:10;;;;;;;5.97;3.70;;;22.40;99.80;;;;;;5101130;27;20047;-73
2022/08/25 01:49:36;;;;;;;9.50;4.28;;;22.30;99.90;;;;;;5100428;28;20073;-74
2022/08/25 01:52:18;;;;;;;9.63;4.43;;;22.30;99.70;;;;;;5100238;27;20058;-73
2022/08/25 01:54:44;;;;;;;11.00;4.35;;;22.30;99.60;;;;;;5119038;27;20758;-73
2022/08/25 01:57:09;;;;;;;8.18;4.03;;;22.30;99.90;;;;;;5119905;27;20043;-74
2022/08/25 01:59:35;;;;;;;6.97;4.00;;;22.30;99.80;;;;;;5105947;27;20061;-74
2022/08/25 02:02:01;;;;;;;7.13;3.88;;;22.30;99.90;;;;;;5096507;27;20043;-73
2022/08/25 02:04:30;;;;;;;5.63;3.67;;;22.20;99.80;;;;;;5105470;27;20035;-73
2022/08/25 02:06:57;;;;;;;7.25;4.03;;;22.30;99.70;;;;;;5113968;27;20047;-73
2022/08/25 02:09:23;;;;;;;8.40;3.92;;;22.20;99.60;;;;;;5122331;27;21735;-74
2022/08/25 02:11:49;;;;;;;8.95;4.35;;;22.20;99.70;;;;;;5128391;27;20120;-73
2022/08/25 02:14:16;;;;;;;9.60;4.13;;;22.20;99.80;;;;;;5108057;27;20126;-73
2022/08/25 02:16:47;;;;;;;6.93;3.70;;;22.10;99.80;;;;;;5126017;27;20571;-74
2022/08/25 02:19:14;;;;;;;7.68;3.80;;;22.10;99.90;;;;;;5118007;27;20830;-73
2022/08/25 02:21:41;;;;;;;7.22;3.90;;;22.10;99.90;;;;;;5126739;28;20051;-74
2022/08/25 02:24:07;;;;;;;9.07;4.07;;;22.10;99.90;;;;;;5119669;27;20039;-74
2022/08/25 02:26:35;;;;;;;6.72;4.03;;;22.10;99.90;;;;;;5116859;28;20043;-74
2022/08/25 02:29:01;;;;;;;6.50;3.80;;;22.00;99.90;;;;;;5106489;28;20117;-73
2022/08/25 02:31:28;;;;;;;9.75;4.20;;;22.00;99.90;;;;;;5104532;28;21049;-73
2022/08/25 02:33:54;;;;;;;9.97;3.93;;;22.00;99.90;;;;;;5102990;28;20054;-74
2022/08/25 02:36:21;;;;;;;8.95;4.30;;;21.90;99.90;;;;;;5110397;28;20039;-74
2022/08/25 02:38:48;;;;;;;8.55;4.15;;;21.90;99.90;;;;;;5123337;27;20039;-73
2022/08/25 02:41:18;;;;;;;6.13;3.95;;;21.90;99.90;;;;;;5102316;27;20047;-74
2022/08/25 02:43:45;;;;;;;9.13;4.10;;;21.90;99.90;;;;;;5128825;27;20035;-74
2022/08/25 02:46:11;;;;;;;7.30;4.10;;;21.90;99.90;;;;;;5106507;27;20061;-73
2022/08/25 02:48:38;;;;;;;9.75;4.28;;;21.80;99.90;;;;;;5129185;27;20624;-73
2022/08/25 02:51:05;;;;;;;16.40;4.70;;;21.80;99.90;;;;;;5108621;27;20043;-73
2022/08/25 02:53:32;;;;;;;8.52;4.30;;;21.80;99.90;;;;;;5099775;27;20100;-73
2022/08/25 02:55:58;;;;;;;9.43;4.00;;;21.80;99.90;;;;;;5129997;27;20046;-73
2022/08/25 02:58:24;;;;;;;8.07;4.00;;;21.80;99.90;;;;;;5128789;27;20054;-74
2022/08/25 03:00:51;;;;;;;8.23;4.03;;;21.80;99.90;;;;;;5107600;27;20042;-73
2022/08/25 03:03:18;;;;;;;10.82;4.20;;;21.70;99.90;;;;;;5123806;27;20072;-74
2022/08/25 03:05:44;;;;;;;8.57;4.20;;;21.70;99.90;;;;;;5129987;27;20047;-74
2022/08/25 03:08:11;;;;;;;9.25;4.18;;;21.70;99.90;;;;;;5128301;27;20543;-73
2022/08/25 03:10:37;;;;;;;7.53;4.10;;;21.70;99.90;;;;;;5108564;27;20036;-73
2022/08/25 03:13:03;;;;;;;8.20;4.40;;;21.70;99.90;;;;;;5125774;27;20507;-73
2022/08/25 03:15:29;;;;;;;6.90;4.10;;;21.60;99.90;;;;;;5131043;27;20118;-73
2022/08/25 03:17:56;;;;;;;8.80;4.45;;;21.60;99.90;;;;;;5126383;27;20043;-73
2022/08/25 03:20:24;;;;;;;9.75;4.55;;;21.60;99.90;;;;;;5129918;27;20059;-72
2022/08/25 03:22:50;;;;;;;8.23;4.25;;;21.60;99.90;;;;;;5128869;27;20032;-73
2022/08/25 03:28:02;;;;;;;8.50;4.10;;;21.50;99.90;;;;;;5115739;27;20044;-73
2022/08/25 03:30:28;;;;;;;6.55;4.20;;;21.50;99.90;;;;;;5127833;27;20564;-73
2022/08/25 03:32:54;;;;;;;8.98;4.22;;;21.50;99.90;;;;;;5131295;27;20537;-73
2022/08/25 03:35:20;;;;;;;6.50;4.30;;;21.40;99.90;;;;;;5106755;27;20470;-73
2022/08/25 03:37:46;;;;;;;9.18;4.18;;;21.40;99.90;;;;;;5127884;27;20038;-73
2022/08/25 03:40:14;;;;;;;8.75;4.43;;;21.40;99.90;;;;;;5109722;27;20104;-73
2022/08/25 03:42:41;;;;;;;6.82;4.78;;;21.40;99.90;;;;;;5108388;27;20044;-73
2022/08/25 03:45:07;;;;;;;6.80;4.47;;;21.30;99.90;;;;;;5104608;27;20043;-73
2022/08/25 03:47:33;;;;;;;7.05;4.47;;;21.30;99.90;;;;;;5124669;27;20129;-73
2022/08/25 03:49:59;;;;;;;6.07;3.72;;;21.40;99.90;;;;;;5109185;27;20473;-74
2022/08/25 03:52:25;;;;;;;5.97;3.90;;;21.30;99.90;;;;;;5124728;27;20057;-73
2022/08/25 03:54:51;;;;;;;7.10;4.40;;;21.30;99.90;;;;;;5108615;27;20424;-74
2022/08/25 03:57:19;;;;;;;10.70;4.60;;;21.20;99.90;;;;;;5129133;27;20031;-74
2022/08/25 03:59:45;;;;;;;6.50;4.50;;;21.20;99.90;;;;;;5127780;27;20092;-74
2022/08/25 04:02:10;;;;;;;7.25;4.45;;;21.20;99.90;;;;;;5108251;27;20047;-73
2022/08/25 04:04:36;;;;;;;5.97;4.22;;;21.10;99.90;;;;;;5125491;27;20071;-73
2022/08/25 04:07:01;;;;;;;6.65;4.25;;;21.10;99.90;;;;;;5109373;27;20070;-73
2022/08/25 04:09:27;;;;;;;10.00;4.57;;;21.10;99.90;;;;;;5120298;27;20522;-73
2022/08/25 04:11:53;;;;;;;10.93;4.10;;;21.00;99.90;;;;;;5127975;27;20043;-74
2022/08/25 04:14:20;;;;;;;11.38;4.88;;;21.00;99.90;;;;;;5106406;27;20118;-73
2022/08/25 04:16:46;;;;;;;8.32;4.40;;;21.00;99.90;;;;;;5122499;27;20054;-73
2022/08/25 04:19:11;;;;;;;11.85;4.93;;;20.90;99.90;;;;;;5126413;27;20130;-73
2022/08/25 04:21:38;;;;;;;10.50;4.75;;;20.90;99.90;;;;;;5123406;27;20061;-74
2022/08/25 04:24:05;;;;;;;11.02;4.75;;;20.90;99.90;;;;;;5103645;27;20100;-73
2022/08/25 04:26:47;;;;;;;11.50;5.55;;;20.90;99.90;;;;;;5124459;27;20382;-73
2022/08/25 04:29:15;;;;;;;9.30;4.90;;;20.90;99.90;;;;;;5127010;27;20040;-73
2022/08/25 04:31:43;;;;;;;16.40;5.20;;;20.80;99.90;;;;;;5103473;27;20039;-73
2022/08/25 04:34:09;;;;;;;9.85;5.10;;;20.80;99.90;;;;;;5123150;27;20043;-73
2022/08/25 04:36:35;;;;;;;8.75;5.07;;;20.80;99.90;;;;;;5108021;27;20043;-74
2022/08/25 04:39:01;;;;;;;8.45;4.82;;;20.70;99.90;;;;;;5125318;27;20039;-73
2022/08/25 04:41:28;;;;;;;7.13;5.18;;;20.70;99.90;;;;;;5125844;27;20092;-73
2022/08/25 04:43:56;;;;;;;;;;;20.80;99.90;;;;;;5129526;27;20520;-73
2022/08/25 04:46:23;;;;;;;10.07;5.55;;;20.70;99.90;;;;;;5110575;27;20297;-73
2022/08/25 04:48:51;;;;;;;11.98;5.35;;;20.60;99.90;;;;;;5130118;27;20036;-73
2022/08/25 04:51:22;;;;;;;8.73;5.20;;;20.70;99.90;;;;;;5129505;27;20789;-73
2022/08/25 04:53:48;;;;;;;8.27;5.63;;;20.70;99.90;;;;;;5106186;27;20489;-73
2022/08/25 04:56:16;;;;;;;11.67;5.90;;;20.70;99.90;;;;;;5128349;27;20043;-73
2022/08/25 04:58:42;;;;;;;10.82;5.20;;;20.70;99.90;;;;;;5109767;27;20351;-73
2022/08/25 05:01:17;;;;;;;9.40;5.82;;;20.70;99.90;;;;;;5109789;27;20049;-73
2022/08/25 05:03:44;;;;;;;15.85;6.00;;;20.60;99.90;;;;;;5104601;27;20051;-74
2022/08/25 05:06:10;;;;;;;9.65;5.82;;;20.70;99.90;;;;;;5093039;27;20051;-73
2022/08/25 05:08:36;;;;;;;7.15;5.45;;;20.60;99.90;;;;;;5126089;27;20054;-73
2022/08/25 05:11:06;;;;;;;14.35;6.20;;;20.70;99.90;;;;;;5127833;27;20055;-73
2022/08/25 05:13:31;;;;;;;9.13;5.88;;;20.70;99.90;;;;;;5110286;27;20142;-73
2022/08/25 05:15:59;;;;;;;8.75;5.60;;;20.70;99.90;;;;;;5122479;27;20126;-74
2022/08/25 05:18:25;;;;;;;;;;;20.70;99.90;;;;;;5105652;27;20043;-73
2022/08/25 05:20:52;;;;;;;13.93;6.10;;;20.70;99.90;;;;;;5117358;27;19933;-73
2022/08/25 05:23:20;;;;;;;9.48;5.82;;;20.70;99.90;;;;;;5127947;27;20067;-73
2022/08/25 05:25:46;;;;;;;10.77;6.07;;;20.70;99.90;;;;;;5105918;27;20405;-73
2022/08/25 05:28:13;;;;;;;8.93;6.28;;;20.70;99.90;;;;;;5118244;27;20035;-73
2022/08/25 05:30:40;;;;;;;;;;;20.70;99.90;;;;;;5105217;27;20051;-73
2022/08/25 05:33:06;;;;;;;11.75;5.97;;;20.70;99.90;;;;;;5106064;27;19923;-72
2022/08/25 05:35:32;;;;;;;10.27;6.03;;;20.80;99.90;;;;;;5115616;27;20054;-73
2022/08/25 05:37:57;;;;;;;9.98;5.82;;;20.80;99.90;;;;;;5109687;27;20035;-73
2022/08/25 05:40:24;;;;;;;9.60;6.07;;;20.80;99.90;;;;;;5128031;27;20039;-73
2022/08/25 05:42:50;;;;;;;10.27;6.32;;;20.90;99.90;;;;;;5104419;27;20035;-73
2022/08/25 05:45:16;;;;;;;12.23;6.20;;;20.90;99.90;;;;;;5124613;27;20043;-73
2022/08/25 05:47:42;;;;;;;11.40;6.00;;;20.90;99.90;;;;;;5121131;27;20047;-75
2022/08/25 05:50:08;;;;;;;7.22;5.70;;;21.00;99.90;;;;;;5119863;27;20047;-75
2022/08/25 05:52:34;;;;;;;11.55;5.95;;;21.10;99.90;;;;;;5107626;27;20042;-75
2022/08/25 05:55:04;;;;;;;8.80;5.55;;;21.10;99.90;;;;;;5102126;27;20460;-75
2022/08/25 05:57:31;;;;;;;11.00;5.97;;;21.20;99.90;;;;;;5079995;27;20047;-75
2022/08/25 05:59:56;;;;;;;9.90;6.53;;;21.30;99.90;;;;;;5126228;27;20043;-75
2022/08/25 06:02:42;;;;;;;9.20;5.43;;;21.30;99.90;;;;;;5125181;27;20427;-76
2022/08/25 06:05:11;;;;;;;10.48;6.20;;;21.30;99.90;;;;;;5113155;27;20438;-77
2022/08/25 06:07:37;;;;;;;8.15;5.68;;;21.40;99.90;;;;;;5101656;27;20061;-76
2022/08/25 06:10:05;;;;;;;8.55;5.85;;;21.40;99.90;;;;;;5098674;28;20500;-76
2022/08/25 06:12:33;;;;;;;11.68;6.18;;;21.50;99.90;;;;;;5124593;27;20071;-76
2022/08/25 06:14:58;;;;;;;14.20;7.15;;;21.60;99.90;;;;;;5115206;27;20465;-76
2022/08/25 06:17:24;;;;;;;14.07;6.95;;;21.60;99.90;;;;;;5099532;28;20058;-76
2022/08/25 06:19:52;;;;;;;17.50;7.75;;;21.70;99.90;;;;;;5125466;27;20123;-77
2022/08/25 06:22:18;;;;;;;10.52;6.43;;;21.70;99.90;;;;;;5117254;27;20042;-77
2022/08/25 06:24:44;;;;;;;16.92;7.47;;;21.80;99.90;;;;;;5107884;28;20043;-79
2022/08/25 06:27:09;;;;;;;15.35;7.63;;;21.90;99.90;;;;;;5126523;28;20158;-78
2022/08/25 06:29:35;;;;;;;15.98;8.20;;;21.90;99.90;;;;;;5106046;27;22420;-76
2022/08/25 06:32:01;;;;;;;13.30;7.18;;;22.00;99.90;;;;;;5121524;28;20043;-78
2022/08/25 06:34:27;;;;;;;11.98;6.40;;;22.10;99.90;;;;;;5125622;28;20423;-78
2022/08/25 06:36:53;;;;;;;13.18;5.80;;;22.10;99.90;;;;;;5115420;28;20058;-76
2022/08/25 06:39:19;;;;;;;7.38;5.55;;;22.20;99.90;;;;;;5110531;27;20066;-78
2022/08/25 06:41:44;;;;;;;9.15;5.80;;;22.20;99.90;;;;;;5117446;27;20780;-78
2022/08/25 06:44:11;;;;;;;8.20;5.40;;;22.30;99.90;;;;;;5106596;27;20047;-78
2022/08/25 06:46:38;;;;;;;10.57;5.35;;;22.40;99.90;;;;;;5098029;28;20050;-76
2022/08/25 06:49:05;;;;;;;6.97;4.93;;;22.40;99.90;;;;;;5103178;27;20088;-78
2022/08/25 06:51:30;;;;;;;12.68;5.68;;;22.50;99.90;;;;;;5111502;28;20855;-78
2022/08/25 06:53:56;;;;;;;11.30;6.18;;;22.60;99.90;;;;;;5131467;27;20043;-79
2022/08/25 06:56:22;;;;;;;10.20;5.50;;;22.60;99.90;;;;;;5110498;28;20039;-77
2022/08/25 06:58:48;;;;;;;16.10;5.13;;;22.70;99.90;;;;;;5126839;27;20112;-78
2022/08/25 07:01:25;;;;;;;9.60;5.43;;;22.70;99.90;;;;;;5128123;27;20375;-78
2022/08/25 07:03:57;;;;;;;10.50;5.25;;;22.70;99.90;;;;;;5120119;28;20104;-77
2022/08/25 07:06:24;;;;;;;10.27;5.85;;;22.90;99.90;;;;;;5122868;27;20047;-76
2022/08/25 07:08:50;;;;;;;10.40;5.32;;;23.00;99.90;;;;;;5126677;28;20043;-78
2022/08/25 07:11:17;;;;;;;8.38;5.32;;;23.00;99.90;;;;;;5100847;28;20040;-78
2022/08/25 07:13:44;;;;;;;9.93;5.43;;;23.10;99.90;;;;;;5119623;28;20038;-78
2022/08/25 07:16:14;;;;;;;9.75;5.78;;;23.20;99.90;;;;;;5111181;28;20528;-77
2022/08/25 07:18:44;;;;;;;9.23;5.28;;;23.30;99.90;;;;;;5126760;27;20044;-78
2022/08/25 07:21:11;;;;;;;8.13;5.32;;;23.30;99.90;;;;;;5128514;28;20450;-79
2022/08/25 07:23:37;;;;;;;9.80;5.00;;;23.40;99.90;;;;;;5128893;27;20039;-78
2022/08/25 07:26:25;;;;;;;7.77;5.13;;;23.50;99.90;;;;;;5130073;27;20174;-77
2022/08/25 07:28:50;;;;;;;9.30;4.75;;;23.60;99.90;;;;;;5110564;27;20309;-77
2022/08/25 07:31:16;;;;;;;6.38;5.05;;;23.60;99.90;;;;;;5130199;27;20031;-77
2022/08/25 07:35:14;;;;;;;8.70;5.10;;;23.70;99.90;;;;;;5112477;27;20414;-79
2022/08/25 07:36:30;;;;;;;8.52;5.18;;;23.70;99.90;;;;;;5110984;27;20423;-77
2022/08/25 07:38:58;;;;;;;8.50;5.97;;;23.80;99.90;;;;;;5129302;27;20080;-77
2022/08/25 07:41:24;;;;;;;;;;;23.90;99.90;;;;;;5127961;27;20051;-75
2022/08/25 07:43:50;;;;;;;7.50;5.28;;;23.90;99.90;;;;;;5130502;27;20646;-76
2022/08/25 07:46:16;;;;;;;9.00;5.13;;;24.00;99.90;;;;;;5112061;27;20915;-75
2022/08/25 07:48:41;;;;;;;10.65;5.28;;;24.10;99.90;;;;;;5113642;27;20180;-76
2022/08/25 07:51:09;;;;;;;10.00;5.05;;;24.20;99.90;;;;;;5126956;27;20043;-77
2022/08/25 07:53:35;;;;;;;6.68;4.90;;;24.20;99.90;;;;;;5125205;27;20504;-77
2022/08/25 07:56:01;;;;;;;8.00;4.90;;;24.30;99.90;;;;;;5129201;27;20223;-77
2022/08/25 07:58:27;;;;;;;5.93;4.75;;;24.40;99.90;;;;;;5112680;27;20072;-77
2022/08/25 08:00:54;;;;;;;10.20;5.00;;;24.50;99.90;;;;;;5120863;27;20131;-77
2022/08/25 08:03:19;;;;;;;10.23;5.60;;;24.50;99.90;;;;;;5129940;27;20050;-77
2022/08/25 08:05:45;;;;;;;9.27;5.07;;;24.60;99.90;;;;;;5128589;27;20043;-75
2022/08/25 08:08:11;;;;;;;8.80;5.32;;;24.60;99.90;;;;;;5117707;27;20039;-78
2022/08/25 08:10:40;;;;;;;8.32;5.10;;;24.70;99.90;;;;;;5108386;27;20057;-75
2022/08/25 08:13:08;;;;;;;8.63;4.95;;;24.80;99.90;;;;;;5107533;27;20059;-78
2022/08/25 08:15:35;;;;;;;10.30;4.97;;;24.90;99.90;;;;;;5107546;27;20375;-78
2022/08/25 08:18:02;;;;;;;9.23;5.57;;;24.90;99.90;;;;;;5121472;27;20039;-78
2022/08/25 08:20:30;;;;;;;11.00;5.30;;;25.00;99.90;;;;;;5113945;27;20174;-76
2022/08/25 08:22:56;;;;;;;7.18;4.93;;;25.10;99.90;;;;;;5131387;27;20039;-76
2022/08/25 08:25:22;;;;;;;5.63;4.53;;;25.20;99.90;;;;;;5128778;27;20039;-78
2022/08/25 08:27:55;;;;;;;7.73;5.40;;;25.30;99.90;;;;;;5103164;27;20454;-78
2022/08/25 08:30:22;;;;;;;9.90;4.68;;;25.40;99.90;;;;;;5124356;27;20384;-76
2022/08/25 08:32:51;;;;;;;;;;;25.50;99.90;;;;;;5129247;27;20047;-78
2022/08/25 08:35:17;;;;;;;14.40;5.28;;;25.50;99.90;;;;;;5112976;27;19938;-79
2022/08/25 08:37:46;;;;;;;7.88;4.78;;;25.60;99.90;;;;;;5129848;27;20046;-80
2022/08/25 08:40:17;;;;;;;51.28;7.05;;;25.80;99.90;;;;;;5111981;28;20486;-83
2022/08/25 08:42:53;;;;;;;35.92;6.50;;;25.80;99.90;;;;;;5124020;27;20039;-81
2022/08/25 08:45:35;;;;;;;8.80;5.07;;;25.90;99.90;;;;;;5107785;27;20477;-82
2022/08/25 08:48:22;;;;;;;9.07;5.43;;;26.00;99.90;;;;;;5132030;27;20805;-81
2022/08/25 08:50:51;;;;;;;14.75;5.22;;;26.00;99.90;;;;;;5128386;27;20082;-81
2022/08/25 08:53:35;;;;;;;12.00;6.10;;;26.10;99.90;;;;;;5134055;27;20035;-76
2022/08/25 08:56:07;;;;;;;10.68;6.70;;;26.10;99.90;;;;;;5126818;27;20119;-74
2022/08/25 08:58:46;;;;;;;14.65;7.18;;;25.80;99.90;;;;;;5093286;28;20040;-73
2022/08/25 09:01:17;;;;;;;6.95;5.57;;;25.40;99.90;;;;;;5111245;28;20048;-74
2022/08/25 09:03:48;;;;;;;14.10;6.30;;;25.20;99.90;;;;;;5096749;27;20046;-73
2022/08/25 09:06:47;;;;;;;10.95;5.32;;;25.10;99.90;;;;;;5107334;27;20436;-73
2022/08/25 09:09:19;;;;;;;8.50;4.82;;;25.00;99.90;;;;;;5112992;27;20647;-73
2022/08/25 09:11:44;;;;;;;9.23;5.38;;;24.90;99.90;;;;;;5112944;27;20066;-73
2022/08/25 09:14:24;;;;;;;10.52;5.85;;;24.90;99.90;;;;;;5125863;27;20059;-74
2022/08/25 09:17:14;;;;;;;8.48;5.10;;;24.90;99.90;;;;;;5129709;27;20035;-74
2022/08/25 09:19:48;;;;;;;8.45;4.90;;;24.90;99.90;;;;;;5115115;27;20520;-74
2022/08/25 09:22:42;;;;;;;9.70;5.47;;;25.00;99.90;;;;;;5128179;27;20057;-77
2022/08/25 09:25:10;;;;;;;18.67;6.35;;;25.10;99.90;;;;;;5129303;27;20379;-74
2022/08/25 09:27:57;;;;;;;11.63;5.35;;;25.20;99.90;;;;;;5111934;27;20051;-74
2022/08/25 09:30:23;;;;;;;11.52;5.20;;;25.20;99.90;;;;;;5110748;27;20046;-75
2022/08/25 09:33:00;;;;;;;14.40;5.78;;;25.30;99.90;;;;;;5130437;27;20050;-74
2022/08/25 09:35:30;;;;;;;9.70;4.82;;;25.30;99.90;;;;;;5130543;27;20050;-74
2022/08/25 09:38:01;;;;;;;10.77;4.97;;;25.40;99.90;;;;;;5110184;27;20531;-73
2022/08/25 09:40:36;;;;;;;6.93;4.30;;;25.40;99.90;;;;;;5111442;27;20054;-78
2022/08/25 09:43:16;;;;;;;5.90;4.10;;;25.50;99.90;;;;;;5109799;27;20369;-73
2022/08/25 09:45:45;;;;;;;8.27;4.40;;;25.60;99.90;;;;;;5111716;27;20047;-73
2022/08/25 09:48:36;;;;;;;8.98;4.70;;;25.70;99.90;;;;;;5110144;27;20402;-74
2022/08/25 09:51:17;;;;;;;6.90;4.22;;;25.90;99.90;;;;;;5128845;27;20127;-74
2022/08/25 09:53:56;;;;;;;7.50;4.40;;;25.90;99.90;;;;;;5111403;28;20381;-74
2022/08/25 09:56:31;;;;;;;12.52;5.05;;;26.00;99.90;;;;;;5129402;27;20058;-73
2022/08/25 09:59:26;;;;;;;11.32;4.28;;;26.00;99.90;;;;;;5106690;27;20050;-74
2022/08/25 10:01:57;;;;;;;8.32;4.70;;;26.10;99.90;;;;;;5128488;27;20504;-78
2022/08/25 10:04:35;;;;;;;8.95;4.80;;;26.20;99.90;;;;;;5104193;27;20047;-76
2022/08/25 10:07:05;;;;;;;7.15;4.40;;;26.30;99.90;;;;;;5106520;27;20038;-78
2022/08/25 10:09:39;;;;;;;7.88;4.53;;;26.40;99.90;;;;;;5127777;27;20039;-77
2022/08/25 10:12:20;;;;;;;6.85;4.45;;;26.50;99.90;;;;;;5126919;27;20058;-77
2022/08/25 10:14:46;;;;;;;7.03;3.72;;;26.60;99.90;;;;;;5126915;27;20078;-77
2022/08/25 10:17:32;;;;;;;7.83;3.80;;;26.60;99.90;;;;;;5108417;28;20512;-76
2022/08/25 10:20:10;;;;;;;;;;;26.80;99.90;;;;;;5109854;27;20131;-78
2022/08/25 10:22:37;;;;;;;11.27;4.82;;;26.90;99.90;;;;;;5123671;27;19919;-74
2022/08/25 10:25:06;;;;;;;6.70;3.70;;;27.00;99.90;;;;;;5108813;28;20039;-77
2022/08/25 10:27:53;;;;;;;6.70;3.70;;;27.20;99.90;;;;;;5108307;28;20110;-76
2022/08/25 10:30:27;;;;;;;9.10;4.60;;;27.30;97.40;;;;;;5128011;27;20042;-76
2022/08/25 10:33:17;;;;;;;11.10;4.50;;;27.40;99.90;;;;;;5110964;28;20058;-77
2022/08/25 10:36:04;;;;;;;7.22;4.68;;;27.50;99.90;;;;;;5109949;27;20365;-77
2022/08/25 10:38:40;;;;;;;6.75;3.83;;;27.50;99.90;;;;;;5107687;27;20533;-78
2022/08/25 10:41:09;;;;;;;;;;;27.60;96.30;;;;;;5120455;27;20061;-74
2022/08/25 10:43:44;;;;;;;10.65;4.28;;;27.70;93.80;;;;;;5121168;27;19928;-76
2022/08/25 10:46:41;;;;;;;8.40;3.85;;;27.80;93.20;;;;;;5109235;28;20069;-78
2022/08/25 10:49:17;;;;;;;7.43;3.72;;;27.90;91.90;;;;;;5123773;27;20054;-77
2022/08/25 10:51:56;;;;;;;5.03;3.80;;;28.10;95.50;;;;;;5107765;28;20497;-77
2022/08/25 10:54:51;;;;;;;6.30;3.72;;;28.20;91.80;;;;;;5107909;28;20079;-77
2022/08/25 10:57:28;;;;;;;7.57;3.53;;;28.30;91.60;;;;;;5017354;28;20729;-81
2022/08/25 11:00:03;;;;;;;5.85;3.40;;;28.40;82.90;;;;;;5119165;28;20168;-78
2022/08/25 11:02:50;;;;;;;9.40;3.80;;;28.50;75.20;;;;;;5112013;27;20054;-79
2022/08/25 11:05:23;;;;;;;7.07;3.40;;;28.50;75.90;;;;;;5113331;27;20156;-76
2022/08/25 11:07:53;;;;;;;8.38;3.60;;;28.60;73.80;;;;;;5111984;27;20050;-76
2022/08/25 11:10:30;;;;;;;6.05;3.33;;;28.60;74.80;;;;;;5128568;27;20042;-75
2022/08/25 11:12:59;;;;;;;5.90;3.60;;;28.70;64.90;;;;;;5110108;27;20047;-73
2022/08/25 11:15:46;;;;;;;5.53;3.30;;;28.80;66.50;;;;;;5132629;27;20043;-79
2022/08/25 11:18:13;;;;;;;5.50;3.40;;;28.80;66.10;;;;;;5131852;27;20067;-76
2022/08/25 11:21:06;;;;;;;7.22;3.50;;;28.90;71.40;;;;;;5127366;27;20047;-74
2022/08/25 11:23:40;;;;;;;6.47;3.28;;;29.00;68.80;;;;;;5125825;27;20050;-75
2022/08/25 11:26:10;;;;;;;5.80;3.08;;;29.10;68.00;;;;;;5102316;27;20125;-75
2022/08/25 11:28:53;;;;;;;5.50;3.22;;;29.20;65.30;;;;;;5125862;27;20058;-76
2022/08/25 11:31:21;;;;;;;5.03;3.00;;;29.20;60.30;;;;;;5113286;27;20039;-79
2022/08/25 11:33:49;;;;;;;4.28;3.38;;;29.30;61.70;;;;;;5132051;27;20408;-76
2022/08/25 11:36:39;;;;;;;5.38;3.55;;;29.30;63.20;;;;;;5138758;27;20114;-79
2022/08/25 11:39:16;;;;;;;6.95;3.00;;;29.40;63.80;;;;;;5119252;27;20505;-74
2022/08/25 11:41:53;;;;;;;6.53;3.28;;;29.40;63.40;;;;;;5113582;27;20397;-76
2022/08/25 11:44:28;;;;;;;;;;;29.50;61.30;;;;;;5131891;27;20039;-77
2022/08/25 11:47:15;;;;;;;5.95;3.40;;;29.60;56.60;;;;;;5131442;27;20293;-78
2022/08/25 11:49:56;;;;;;;9.52;3.60;;;29.60;59.10;;;;;;5126001;27;20511;-82
2022/08/25 11:52:31;;;;;;;6.03;3.50;;;29.70;57.60;;;;;;5107971;27;20046;-82
2022/08/25 11:55:26;;;;;;;7.75;3.75;;;29.80;56.70;;;;;;5105832;27;20047;-83
2022/08/25 11:58:14;;;;;;;8.25;3.72;;;29.80;56.90;;;;;;5131154;27;20058;-78
2022/08/25 12:00:42;;;;;;;5.93;3.60;;;29.80;57.30;;;;;;5111289;27;20051;-78
2022/08/25 12:03:35;;;;;;;8.65;3.58;;;29.90;56.40;;;;;;5123741;27;20028;-77
2022/08/25 12:06:25;;;;;;;7.03;3.90;;;29.90;54.20;;;;;;5128556;27;20039;-74
2022/08/25 12:09:00;;;;;;;5.80;3.75;;;30.00;55.80;;;;;;5107402;27;20474;-77
2022/08/25 12:11:37;;;;;;;7.70;3.90;;;30.00;55.10;;;;;;5132142;27;20212;-83
2022/08/25 12:14:21;;;;;;;5.10;3.30;;;30.00;55.70;;;;;;5126791;27;20503;-78
2022/08/25 12:16:50;;;;;;;6.45;3.40;;;30.10;54.50;;;;;;5130466;27;20078;-81
2022/08/25 12:19:21;;;;;;;11.57;4.20;;;30.10;56.30;;;;;;5130509;27;20089;-78
2022/08/25 12:21:47;;;;;;;6.88;4.00;;;30.10;53.80;;;;;;5106804;27;20088;-81
2022/08/25 12:24:16;;;;;;;7.50;3.83;;;30.20;55.40;;;;;;5128404;27;20043;-81
2022/08/25 12:26:56;;;;;;;7.47;4.05;;;30.30;54.70;;;;;;5129207;27;20046;-79
2022/08/25 12:29:36;;;;;;;8.13;4.53;;;30.30;57.20;;;;;;5128839;27;20086;-80
2022/08/25 12:32:31;;;;;;;7.15;3.90;;;30.40;56.00;;;;;;5113938;27;20107;-81
2022/08/25 12:35:15;;;;;;;7.68;4.18;;;30.40;54.80;;;;;;5131248;27;20043;-82
2022/08/25 12:38:01;;;;;;;5.13;4.30;;;30.40;55.50;;;;;;5129315;27;20473;-82
2022/08/25 12:40:51;;;;;;;5.25;4.00;;;30.40;54.40;;;;;;5109828;27;20039;-81
2022/08/25 12:43:36;;;;;;;7.00;4.10;;;30.50;54.50;;;;;;5101600;27;20054;-79
2022/08/25 12:46:20;;;;;;;7.35;4.88;;;30.60;56.00;;;;;;5126136;27;20050;-79
2022/08/25 12:49:27;;;;;;;6.68;4.07;;;30.70;60.40;;;;;;5109599;27;20065;-80
2022/08/25 12:51:57;;;;;;;6.70;4.88;;;30.70;55.70;;;;;;5129988;27;20111;-79
2022/08/25 12:54:35;;;;;;;10.32;4.63;;;30.80;54.60;;;;;;5128864;27;20458;-80
2022/08/25 12:57:31;;;;;;;7.10;4.65;;;30.80;53.80;;;;;;5130273;27;20078;-74
2022/08/25 13:00:00;;;;;;;8.77;4.32;;;30.80;53.30;;;;;;5107955;27;20047;-78
2022/08/25 13:02:47;;;;;;;5.70;4.35;;;30.80;53.90;;;;;;5110548;27;20039;-80
2022/08/25 13:05:24;;;;;;;8.88;4.20;;;30.90;53.10;;;;;;5111758;27;20111;-80
2022/08/25 13:08:11;;;;;;;9.32;4.35;;;30.80;54.40;;;;;;5129561;27;20074;-75
2022/08/25 13:10:45;;;;;;;7.45;4.13;;;30.90;55.40;;;;;;5108763;27;20562;-81